Rembrandt, Iowa
Current Conditions -  °F | °C
As of 1:15 PM on Sunday 21 Dec 2014 (Local Time) from KSLB Reporting Station
Haze Haze  
Wind Chill: 27°   Ceiling: 300
Heat Index: 37°   Visibility: 0.75mi
Dew Point: 37°   Wind: 21mph
Humidity: 100%   Direction: 180°S
Pressure: 29.72"   Gusts: NA
Location:  42.83°N, 95.17°W
Report Text: KSLB 211915Z AUTO 18018KT 3/4SM BR OVC003 03/03 A2972 RMK AO2
Loading
Personal Weather Stations






























Interactive Weather Map New forecast layout! Learn more

10-Day Weather Forecast

Advertisements
Track Severe Weather on mobile